sensor_id;sensor_type;location;lat;lon;timestamp;pressure;altitude;pressure_sealevel;temperature;humidity
54361;BME280;40258;53.936;27.540;2022-07-29T00:01:54;99644.38;;;13.83;100.00
54361;BME280;40258;53.936;27.540;2022-07-29T00:04:22;99642.97;;;13.77;100.00
54361;BME280;40258;53.936;27.540;2022-07-29T00:06:52;99643.09;;;13.80;100.00
54361;BME280;40258;53.936;27.540;2022-07-29T00:09:21;99646.00;;;13.84;100.00
54361;BME280;40258;53.936;27.540;2022-07-29T00:11:49;99637.47;;;13.86;100.00
54361;BME280;40258;53.936;27.540;2022-07-29T00:14:18;99639.88;;;13.87;100.00
54361;BME280;40258;53.936;27.540;2022-07-29T00:16:47;99636.00;;;13.88;100.00
54361;BME280;40258;53.936;27.540;2022-07-29T00:19:15;99644.19;;;13.88;100.00
54361;BME280;40258;53.936;27.540;2022-07-29T00:21:44;99642.09;;;13.85;100.00
54361;BME280;40258;53.936;27.540;2022-07-29T00:24:14;99638.25;;;13.86;100.00
54361;BME280;40258;53.936;27.540;2022-07-29T00:26:43;99641.66;;;13.83;100.00
54361;BME280;40258;53.936;27.540;2022-07-29T00:29:11;99641.84;;;13.78;100.00
54361;BME280;40258;53.936;27.540;2022-07-29T00:31:40;99647.00;;;13.71;100.00
54361;BME280;40258;53.936;27.540;2022-07-29T00:34:08;99647.19;;;13.65;100.00
54361;BME280;40258;53.936;27.540;2022-07-29T00:36:57;99646.75;;;13.63;100.00
54361;BME280;40258;53.936;27.540;2022-07-29T00:39:26;99643.38;;;13.58;100.00
54361;BME280;40258;53.936;27.540;2022-07-29T00:41:55;99647.09;;;13.53;100.00
54361;BME280;40258;53.936;27.540;2022-07-29T00:44:23;99642.44;;;13.54;100.00
54361;BME280;40258;53.936;27.540;2022-07-29T00:46:52;99638.91;;;13.53;100.00
54361;BME280;40258;53.936;27.540;2022-07-29T00:49:20;99639.25;;;13.52;100.00
54361;BME280;40258;53.936;27.540;2022-07-29T00:51:50;99635.41;;;13.53;100.00
54361;BME280;40258;53.936;27.540;2022-07-29T00:54:19;99632.34;;;13.54;100.00
54361;BME280;40258;53.936;27.540;2022-07-29T00:56:49;99635.88;;;13.55;100.00
54361;BME280;40258;53.936;27.540;2022-07-29T00:59:18;99634.13;;;13.50;100.00
54361;BME280;40258;53.936;27.540;2022-07-29T01:01:47;99632.69;;;13.44;100.00
54361;BME280;40258;53.936;27.540;2022-07-29T01:04:15;99638.81;;;13.41;100.00
54361;BME280;40258;53.936;27.540;2022-07-29T01:06:44;99642.66;;;13.40;100.00
54361;BME280;40258;53.936;27.540;2022-07-29T01:09:13;99641.84;;;13.39;100.00
54361;BME280;40258;53.936;27.540;2022-07-29T01:11:43;99637.84;;;13.37;100.00
54361;BME280;40258;53.936;27.540;2022-07-29T01:14:13;99636.28;;;13.36;100.00
54361;BME280;40258;53.936;27.540;2022-07-29T01:16:54;99632.09;;;13.29;100.00
54361;BME280;40258;53.936;27.540;2022-07-29T01:19:53;99627.00;;;13.19;100.00
54361;BME280;40258;53.936;27.540;2022-07-29T01:22:37;99641.25;;;13.16;100.00
54361;BME280;40258;53.936;27.540;2022-07-29T01:25:40;99636.00;;;13.11;100.00
54361;BME280;40258;53.936;27.540;2022-07-29T01:29:02;99636.19;;;13.06;100.00
54361;BME280;40258;53.936;27.540;2022-07-29T01:31:40;99640.03;;;13.05;100.00
54361;BME280;40258;53.936;27.540;2022-07-29T01:34:16;99629.78;;;13.02;100.00
54361;BME280;40258;53.936;27.540;2022-07-29T01:36:48;99623.53;;;12.92;100.00
54361;BME280;40258;53.936;27.540;2022-07-29T01:39:23;99631.72;;;12.92;100.00
54361;BME280;40258;53.936;27.540;2022-07-29T01:42:05;99623.41;;;12.89;100.00
54361;BME280;40258;53.936;27.540;2022-07-29T01:44:41;99624.38;;;12.84;100.00
54361;BME280;40258;53.936;27.540;2022-07-29T01:47:17;99637.81;;;12.81;100.00
54361;BME280;40258;53.936;27.540;2022-07-29T01:49:51;99625.97;;;12.76;100.00
54361;BME280;40258;53.936;27.540;2022-07-29T01:52:27;99627.88;;;12.76;100.00
54361;BME280;40258;53.936;27.540;2022-07-29T01:55:07;99623.59;;;12.75;100.00
54361;BME280;40258;53.936;27.540;2022-07-29T01:57:39;99632.06;;;12.73;100.00
54361;BME280;40258;53.936;27.540;2022-07-29T02:00:13;99628.06;;;12.71;100.00
54361;BME280;40258;53.936;27.540;2022-07-29T02:02:45;99625.66;;;12.69;100.00
54361;BME280;40258;53.936;27.540;2022-07-29T02:05:18;99631.91;;;12.70;100.00
54361;BME280;40258;53.936;27.540;2022-07-29T02:07:49;99630.78;;;12.71;100.00
54361;BME280;40258;53.936;27.540;2022-07-29T02:10:24;99636.69;;;12.73;100.00
54361;BME280;40258;53.936;27.540;2022-07-29T02:12:55;99633.97;;;12.73;100.00
54361;BME280;40258;53.936;27.540;2022-07-29T02:15:29;99635.44;;;12.70;100.00
54361;BME280;40258;53.936;27.540;2022-07-29T02:18:04;99630.97;;;12.66;100.00
54361;BME280;40258;53.936;27.540;2022-07-29T02:20:34;99641.19;;;12.60;100.00
54361;BME280;40258;53.936;27.540;2022-07-29T02:23:04;99646.81;;;12.55;100.00
54361;BME280;40258;53.936;27.540;2022-07-29T02:25:32;99649.22;;;12.56;100.00
54361;BME280;40258;53.936;27.540;2022-07-29T02:28:03;99639.31;;;12.61;100.00
54361;BME280;40258;53.936;27.540;2022-07-29T02:30:34;99635.94;;;12.64;100.00
54361;BME280;40258;53.936;27.540;2022-07-29T02:33:06;99636.88;;;12.68;100.00
54361;BME280;40258;53.936;27.540;2022-07-29T02:35:37;99643.09;;;12.68;100.00
54361;BME280;40258;53.936;27.540;2022-07-29T02:38:08;99644.41;;;12.71;100.00
54361;BME280;40258;53.936;27.540;2022-07-29T02:40:55;99643.94;;;12.69;100.00
54361;BME280;40258;53.936;27.540;2022-07-29T02:43:26;99647.59;;;12.73;100.00
54361;BME280;40258;53.936;27.540;2022-07-29T02:45:59;99643.75;;;12.74;100.00
54361;BME280;40258;53.936;27.540;2022-07-29T02:48:36;99651.75;;;12.79;100.00
54361;BME280;40258;53.936;27.540;2022-07-29T02:51:11;99652.06;;;12.86;100.00
54361;BME280;40258;53.936;27.540;2022-07-29T02:53:42;99651.56;;;12.93;100.00
54361;BME280;40258;53.936;27.540;2022-07-29T02:56:14;99644.03;;;12.99;100.00
54361;BME280;40258;53.936;27.540;2022-07-29T02:58:55;99655.25;;;13.06;100.00
54361;BME280;40258;53.936;27.540;2022-07-29T03:01:32;99647.03;;;13.15;100.00
54361;BME280;40258;53.936;27.540;2022-07-29T03:04:03;99655.19;;;13.23;100.00
54361;BME280;40258;53.936;27.540;2022-07-29T03:06:34;99658.84;;;13.27;100.00
54361;BME280;40258;53.936;27.540;2022-07-29T03:09:05;99676.00;;;13.37;100.00
54361;BME280;40258;53.936;27.540;2022-07-29T03:11:35;99666.53;;;13.43;100.00
54361;BME280;40258;53.936;27.540;2022-07-29T03:14:05;99665.63;;;13.69;100.00
54361;BME280;40258;53.936;27.540;2022-07-29T03:16:35;99657.47;;;14.83;100.00
54361;BME280;40258;53.936;27.540;2022-07-29T03:19:05;99659.47;;;16.02;100.00
54361;BME280;40258;53.936;27.540;2022-07-29T03:21:34;99655.13;;;17.11;100.00
54361;BME280;40258;53.936;27.540;2022-07-29T03:24:03;99663.03;;;18.27;94.39
54361;BME280;40258;53.936;27.540;2022-07-29T03:26:31;99669.00;;;18.68;86.84
54361;BME280;40258;53.936;27.540;2022-07-29T03:29:00;99660.28;;;18.27;85.16
54361;BME280;40258;53.936;27.540;2022-07-29T03:31:28;99669.56;;;17.71;87.63
54361;BME280;40258;53.936;27.540;2022-07-29T03:33:58;99665.22;;;17.22;90.14
54361;BME280;40258;53.936;27.540;2022-07-29T03:36:27;99660.59;;;16.82;93.20
54361;BME280;40258;53.936;27.540;2022-07-29T03:38:56;99660.81;;;16.61;94.92
54361;BME280;40258;53.936;27.540;2022-07-29T03:41:25;99665.69;;;16.40;97.35
54361;BME280;40258;53.936;27.540;2022-07-29T03:43:54;99658.53;;;16.10;100.00
54361;BME280;40258;53.936;27.540;2022-07-29T03:46:24;99676.59;;;15.87;100.00
54361;BME280;40258;53.936;27.540;2022-07-29T03:48:59;99667.91;;;15.60;100.00
54361;BME280;40258;53.936;27.540;2022-07-29T03:51:29;99664.69;;;15.45;100.00
54361;BME280;40258;53.936;27.540;2022-07-29T03:53:58;99662.63;;;15.42;100.00
54361;BME280;40258;53.936;27.540;2022-07-29T03:56:27;99665.69;;;15.41;100.00
54361;BME280;40258;53.936;27.540;2022-07-29T03:58:57;99670.63;;;15.60;100.00
54361;BME280;40258;53.936;27.540;2022-07-29T04:01:27;99668.78;;;15.64;100.00
54361;BME280;40258;53.936;27.540;2022-07-29T04:03:58;99665.50;;;15.58;100.00
54361;BME280;40258;53.936;27.540;2022-07-29T04:06:27;99671.75;;;15.59;100.00
54361;BME280;40258;53.936;27.540;2022-07-29T04:08:56;99671.13;;;15.87;100.00
54361;BME280;40258;53.936;27.540;2022-07-29T04:11:24;99672.47;;;16.05;100.00
54361;BME280;40258;53.936;27.540;2022-07-29T04:13:52;99674.97;;;16.23;100.00
54361;BME280;40258;53.936;27.540;2022-07-29T04:16:21;99675.94;;;16.43;100.00
54361;BME280;40258;53.936;27.540;2022-07-29T04:18:49;99684.91;;;16.56;100.00
54361;BME280;40258;53.936;27.540;2022-07-29T04:21:19;99681.97;;;16.48;100.00
54361;BME280;40258;53.936;27.540;2022-07-29T04:23:48;99679.44;;;16.56;100.00
54361;BME280;40258;53.936;27.540;2022-07-29T04:26:18;99678.78;;;16.46;100.00
54361;BME280;40258;53.936;27.540;2022-07-29T04:28:47;99683.34;;;16.42;100.00
54361;BME280;40258;53.936;27.540;2022-07-29T04:31:15;99681.97;;;16.48;100.00
54361;BME280;40258;53.936;27.540;2022-07-29T04:33:44;99676.34;;;16.16;100.00
54361;BME280;40258;53.936;27.540;2022-07-29T04:36:13;99687.75;;;15.94;100.00
54361;BME280;40258;53.936;27.540;2022-07-29T04:38:43;99682.50;;;15.89;100.00
54361;BME280;40258;53.936;27.540;2022-07-29T04:41:11;99686.63;;;15.82;100.00
54361;BME280;40258;53.936;27.540;2022-07-29T04:43:40;99695.94;;;15.57;100.00
54361;BME280;40258;53.936;27.540;2022-07-29T04:46:08;99702.28;;;15.49;100.00
54361;BME280;40258;53.936;27.540;2022-07-29T04:48:37;99698.66;;;15.44;100.00
54361;BME280;40258;53.936;27.540;2022-07-29T04:51:06;99705.22;;;15.31;100.00
54361;BME280;40258;53.936;27.540;2022-07-29T04:53:34;99700.47;;;15.53;100.00
54361;BME280;40258;53.936;27.540;2022-07-29T04:56:05;99707.25;;;16.05;100.00
54361;BME280;40258;53.936;27.540;2022-07-29T04:58:34;99706.56;;;15.95;100.00
54361;BME280;40258;53.936;27.540;2022-07-29T05:01:03;99705.31;;;15.80;100.00
54361;BME280;40258;53.936;27.540;2022-07-29T05:03:31;99709.16;;;15.67;100.00
54361;BME280;40258;53.936;27.540;2022-07-29T05:06:00;99715.47;;;15.80;100.00
54361;BME280;40258;53.936;27.540;2022-07-29T05:08:29;99715.09;;;16.18;100.00
54361;BME280;40258;53.936;27.540;2022-07-29T05:10:57;99713.91;;;16.57;100.00
54361;BME280;40258;53.936;27.540;2022-07-29T05:13:27;99712.66;;;16.95;100.00
54361;BME280;40258;53.936;27.540;2022-07-29T05:15:56;99715.09;;;17.12;98.38
54361;BME280;40258;53.936;27.540;2022-07-29T05:18:25;99715.31;;;16.50;100.00
54361;BME280;40258;53.936;27.540;2022-07-29T05:20:54;99709.19;;;16.04;100.00
54361;BME280;40258;53.936;27.540;2022-07-29T05:23:22;99726.72;;;15.66;100.00
54361;BME280;40258;53.936;27.540;2022-07-29T05:25:51;99726.59;;;15.75;100.00
54361;BME280;40258;53.936;27.540;2022-07-29T05:28:19;99723.06;;;15.62;100.00
54361;BME280;40258;53.936;27.540;2022-07-29T05:30:49;99734.81;;;15.17;100.00
54361;BME280;40258;53.936;27.540;2022-07-29T05:33:18;99729.00;;;15.18;100.00
54361;BME280;40258;53.936;27.540;2022-07-29T05:35:47;99739.03;;;15.26;100.00
54361;BME280;40258;53.936;27.540;2022-07-29T05:38:15;99741.53;;;15.19;100.00
54361;BME280;40258;53.936;27.540;2022-07-29T05:40:44;99738.66;;;15.16;100.00
54361;BME280;40258;53.936;27.540;2022-07-29T05:43:13;99749.00;;;15.43;100.00
54361;BME280;40258;53.936;27.540;2022-07-29T05:45:41;99742.00;;;15.21;100.00
54361;BME280;40258;53.936;27.540;2022-07-29T05:48:11;99749.03;;;14.89;100.00
54361;BME280;40258;53.936;27.540;2022-07-29T05:50:39;99746.06;;;14.94;100.00
54361;BME280;40258;53.936;27.540;2022-07-29T05:53:08;99751.47;;;15.03;100.00
54361;BME280;40258;53.936;27.540;2022-07-29T05:55:36;99751.16;;;15.04;100.00
54361;BME280;40258;53.936;27.540;2022-07-29T05:58:05;99753.22;;;15.07;100.00
54361;BME280;40258;53.936;27.540;2022-07-29T06:00:33;99750.47;;;15.07;100.00
54361;BME280;40258;53.936;27.540;2022-07-29T06:03:02;99753.00;;;15.13;100.00
54361;BME280;40258;53.936;27.540;2022-07-29T06:05:32;99766.38;;;14.93;100.00
54361;BME280;40258;53.936;27.540;2022-07-29T06:08:01;99755.28;;;14.89;100.00
54361;BME280;40258;53.936;27.540;2022-07-29T06:10:29;99757.56;;;15.08;100.00
54361;BME280;40258;53.936;27.540;2022-07-29T06:12:58;99754.22;;;15.36;100.00
54361;BME280;40258;53.936;27.540;2022-07-29T06:15:26;99765.84;;;15.45;100.00
54361;BME280;40258;53.936;27.540;2022-07-29T06:17:55;99759.28;;;15.59;100.00
54361;BME280;40258;53.936;27.540;2022-07-29T06:20:23;99756.81;;;15.66;100.00
54361;BME280;40258;53.936;27.540;2022-07-29T06:22:53;99751.84;;;15.93;100.00
54361;BME280;40258;53.936;27.540;2022-07-29T06:25:22;99751.63;;;16.10;100.00
54361;BME280;40258;53.936;27.540;2022-07-29T06:27:50;99753.44;;;15.94;100.00
54361;BME280;40258;53.936;27.540;2022-07-29T06:30:19;99746.59;;;16.25;100.00
54361;BME280;40258;53.936;27.540;2022-07-29T06:32:47;99749.13;;;16.05;100.00
54361;BME280;40258;53.936;27.540;2022-07-29T06:35:16;99748.66;;;16.03;100.00
54361;BME280;40258;53.936;27.540;2022-07-29T06:37:44;99747.41;;;16.13;100.00
54361;BME280;40258;53.936;27.540;2022-07-29T06:40:15;99750.25;;;16.41;100.00
54361;BME280;40258;53.936;27.540;2022-07-29T06:43:01;99747.47;;;16.53;100.00
54361;BME280;40258;53.936;27.540;2022-07-29T06:45:29;99756.16;;;16.56;100.00
54361;BME280;40258;53.936;27.540;2022-07-29T06:47:58;99751.09;;;16.58;100.00
54361;BME280;40258;53.936;27.540;2022-07-29T06:50:26;99744.41;;;16.55;100.00
54361;BME280;40258;53.936;27.540;2022-07-29T06:52:55;99745.81;;;16.77;98.81
54361;BME280;40258;53.936;27.540;2022-07-29T06:55:25;99745.81;;;16.77;98.70
54361;BME280;40258;53.936;27.540;2022-07-29T06:57:53;99756.34;;;16.75;100.00
54361;BME280;40258;53.936;27.540;2022-07-29T07:00:22;99757.03;;;16.72;99.37
54361;BME280;40258;53.936;27.540;2022-07-29T07:02:51;99754.03;;;16.89;98.56
54361;BME280;40258;53.936;27.540;2022-07-29T07:08:25;99759.91;;;17.04;96.53
54361;BME280;40258;53.936;27.540;2022-07-29T07:11:12;99767.88;;;17.09;96.64
54361;BME280;40258;53.936;27.540;2022-07-29T07:13:41;99772.69;;;17.12;95.72
54361;BME280;40258;53.936;27.540;2022-07-29T07:16:10;99766.34;;;16.83;99.25
54361;BME280;40258;53.936;27.540;2022-07-29T07:18:38;99772.75;;;16.87;98.32
54361;BME280;40258;53.936;27.540;2022-07-29T07:21:07;99769.09;;;16.83;95.66
54361;BME280;40258;53.936;27.540;2022-07-29T07:23:35;99771.19;;;16.86;97.30
54361;BME280;40258;53.936;27.540;2022-07-29T07:26:04;99780.69;;;17.17;93.44
54361;BME280;40258;53.936;27.540;2022-07-29T07:28:34;99768.88;;;17.17;93.27
54361;BME280;40258;53.936;27.540;2022-07-29T07:31:03;99774.34;;;17.45;91.02
54361;BME280;40258;53.936;27.540;2022-07-29T07:33:32;99775.50;;;17.28;92.05
54361;BME280;40258;53.936;27.540;2022-07-29T07:36:00;99778.16;;;17.12;94.85
54361;BME280;40258;53.936;27.540;2022-07-29T07:38:29;99776.59;;;17.11;94.42
54361;BME280;40258;53.936;27.540;2022-07-29T07:40:57;99784.13;;;17.14;94.12
54361;BME280;40258;53.936;27.540;2022-07-29T07:43:26;99792.50;;;17.50;93.26
54361;BME280;40258;53.936;27.540;2022-07-29T07:45:57;99789.22;;;17.44;91.15
54361;BME280;40258;53.936;27.540;2022-07-29T07:48:25;99790.19;;;17.36;91.80
54361;BME280;40258;53.936;27.540;2022-07-29T07:50:55;99795.22;;;17.34;90.77
54361;BME280;40258;53.936;27.540;2022-07-29T07:53:23;99801.44;;;17.47;89.66
54361;BME280;40258;53.936;27.540;2022-07-29T07:55:52;99802.34;;;17.67;89.25
54361;BME280;40258;53.936;27.540;2022-07-29T07:58:20;99805.88;;;17.51;88.88
54361;BME280;40258;53.936;27.540;2022-07-29T08:00:49;99808.56;;;17.64;89.85
54361;BME280;40258;53.936;27.540;2022-07-29T08:03:20;99813.59;;;17.90;89.28
54361;BME280;40258;53.936;27.540;2022-07-29T08:05:49;99814.03;;;18.24;86.92
54361;BME280;40258;53.936;27.540;2022-07-29T08:08:18;99813.41;;;18.14;88.31
54361;BME280;40258;53.936;27.540;2022-07-29T08:10:47;99827.81;;;17.79;87.52
54361;BME280;40258;53.936;27.540;2022-07-29T08:13:24;99820.28;;;17.76;87.01
54361;BME280;40258;53.936;27.540;2022-07-29T08:15:55;99822.34;;;18.11;85.69
54361;BME280;40258;53.936;27.540;2022-07-29T08:18:30;99828.22;;;17.94;85.71
54361;BME280;40258;53.936;27.540;2022-07-29T08:20:59;99825.28;;;18.03;85.43
54361;BME280;40258;53.936;27.540;2022-07-29T08:23:28;99820.56;;;17.87;83.53
54361;BME280;40258;53.936;27.540;2022-07-29T08:26:01;99831.06;;;18.29;82.55
54361;BME280;40258;53.936;27.540;2022-07-29T08:28:30;99837.31;;;18.46;80.63
54361;BME280;40258;53.936;27.540;2022-07-29T08:30:59;99839.03;;;18.86;77.97
54361;BME280;40258;53.936;27.540;2022-07-29T08:33:29;99838.84;;;19.14;76.02
54361;BME280;40258;53.936;27.540;2022-07-29T08:35:58;99834.94;;;19.35;75.78
54361;BME280;40258;53.936;27.540;2022-07-29T08:38:26;99832.38;;;18.36;79.89
54361;BME280;40258;53.936;27.540;2022-07-29T08:40:55;99830.63;;;17.83;82.74
54361;BME280;40258;53.936;27.540;2022-07-29T08:43:24;99835.94;;;18.20;81.99
54361;BME280;40258;53.936;27.540;2022-07-29T08:45:53;99837.53;;;18.73;79.52
54361;BME280;40258;53.936;27.540;2022-07-29T08:48:23;99842.69;;;19.49;74.56
54361;BME280;40258;53.936;27.540;2022-07-29T08:50:56;99841.75;;;19.61;74.38
54361;BME280;40258;53.936;27.540;2022-07-29T08:53:27;99856.69;;;19.40;74.43
54361;BME280;40258;53.936;27.540;2022-07-29T08:55:57;99847.56;;;18.81;76.95
54361;BME280;40258;53.936;27.540;2022-07-29T08:58:29;99840.34;;;18.41;79.50
54361;BME280;40258;53.936;27.540;2022-07-29T09:01:02;99848.06;;;18.19;80.07
54361;BME280;40258;53.936;27.540;2022-07-29T09:03:33;99850.53;;;18.08;78.73
54361;BME280;40258;53.936;27.540;2022-07-29T09:06:04;99842.78;;;18.78;77.07
54361;BME280;40258;53.936;27.540;2022-07-29T09:08:34;99849.19;;;19.21;73.51
54361;BME280;40258;53.936;27.540;2022-07-29T09:11:03;99856.97;;;19.54;72.70
54361;BME280;40258;53.936;27.540;2022-07-29T09:13:31;99853.69;;;19.49;71.30
54361;BME280;40258;53.936;27.540;2022-07-29T09:16:01;99851.84;;;18.62;74.47
54361;BME280;40258;53.936;27.540;2022-07-29T09:18:37;99853.66;;;18.74;75.62
54361;BME280;40258;53.936;27.540;2022-07-29T09:21:11;99850.66;;;19.15;72.65
54361;BME280;40258;53.936;27.540;2022-07-29T09:24:05;99857.38;;;19.56;72.85
54361;BME280;40258;53.936;27.540;2022-07-29T09:26:37;99853.31;;;20.36;69.82
54361;BME280;40258;53.936;27.540;2022-07-29T09:29:11;99857.00;;;20.97;64.20
54361;BME280;40258;53.936;27.540;2022-07-29T09:31:42;99854.94;;;21.21;63.23
54361;BME280;40258;53.936;27.540;2022-07-29T09:34:14;99850.28;;;21.55;61.27
54361;BME280;40258;53.936;27.540;2022-07-29T09:36:47;99856.88;;;21.84;59.75
54361;BME280;40258;53.936;27.540;2022-07-29T09:39:28;99847.81;;;21.87;60.05
54361;BME280;40258;53.936;27.540;2022-07-29T09:42:00;99845.00;;;21.80;59.95
54361;BME280;40258;53.936;27.540;2022-07-29T09:44:42;99840.34;;;21.50;62.64
54361;BME280;40258;53.936;27.540;2022-07-29T09:47:12;99844.47;;;21.03;64.17
54361;BME280;40258;53.936;27.540;2022-07-29T09:49:55;99833.22;;;21.19;62.91
54361;BME280;40258;53.936;27.540;2022-07-29T09:52:27;99829.31;;;21.50;63.19
54361;BME280;40258;53.936;27.540;2022-07-29T09:55:05;99824.94;;;21.49;62.88
54361;BME280;40258;53.936;27.540;2022-07-29T09:57:34;99827.88;;;21.64;63.63
54361;BME280;40258;53.936;27.540;2022-07-29T10:00:07;99830.34;;;21.76;61.98
54361;BME280;40258;53.936;27.540;2022-07-29T10:02:41;99823.22;;;21.71;61.44
54361;BME280;40258;53.936;27.540;2022-07-29T10:05:20;99823.84;;;21.58;61.65
54361;BME280;40258;53.936;27.540;2022-07-29T10:07:54;99817.72;;;21.75;60.87
54361;BME280;40258;53.936;27.540;2022-07-29T10:10:28;99824.06;;;21.76;60.63
54361;BME280;40258;53.936;27.540;2022-07-29T10:12:58;99822.69;;;21.59;62.40
54361;BME280;40258;53.936;27.540;2022-07-29T10:15:29;99817.69;;;21.71;61.35
54361;BME280;40258;53.936;27.540;2022-07-29T10:17:59;99812.28;;;21.86;60.92
54361;BME280;40258;53.936;27.540;2022-07-29T10:20:28;99821.91;;;22.03;60.04
54361;BME280;40258;53.936;27.540;2022-07-29T10:22:58;99807.09;;;21.77;63.25
54361;BME280;40258;53.936;27.540;2022-07-29T10:25:27;99814.28;;;21.85;62.08
54361;BME280;40258;53.936;27.540;2022-07-29T10:27:56;99810.84;;;21.99;60.25
54361;BME280;40258;53.936;27.540;2022-07-29T10:30:26;99806.09;;;21.96;60.63
54361;BME280;40258;53.936;27.540;2022-07-29T10:33:17;99803.00;;;22.05;60.78
54361;BME280;40258;53.936;27.540;2022-07-29T10:36:10;99807.69;;;22.01;59.85
54361;BME280;40258;53.936;27.540;2022-07-29T10:38:50;99811.59;;;21.96;59.00
54361;BME280;40258;53.936;27.540;2022-07-29T10:41:42;99805.41;;;22.10;59.98
54361;BME280;40258;53.936;27.540;2022-07-29T10:44:16;99817.44;;;22.32;58.06
54361;BME280;40258;53.936;27.540;2022-07-29T10:46:46;99812.72;;;22.33;57.53
54361;BME280;40258;53.936;27.540;2022-07-29T10:49:17;99811.63;;;22.00;58.20
54361;BME280;40258;53.936;27.540;2022-07-29T10:52:05;99809.22;;;21.95;57.02
54361;BME280;40258;53.936;27.540;2022-07-29T10:54:41;99804.38;;;21.84;60.05
54361;BME280;40258;53.936;27.540;2022-07-29T10:57:17;99805.03;;;22.15;57.79
54361;BME280;40258;53.936;27.540;2022-07-29T10:59:49;99801.38;;;22.49;58.10
54361;BME280;40258;53.936;27.540;2022-07-29T11:02:43;99799.03;;;22.54;56.56
54361;BME280;40258;53.936;27.540;2022-07-29T11:05:15;99797.53;;;22.68;53.06
54361;BME280;40258;53.936;27.540;2022-07-29T11:08:22;99807.31;;;22.54;54.52
54361;BME280;40258;53.936;27.540;2022-07-29T11:11:36;99803.94;;;22.83;56.67
54361;BME280;40258;53.936;27.540;2022-07-29T11:14:07;99793.69;;;22.90;52.31
54361;BME280;40258;53.936;27.540;2022-07-29T11:17:02;99793.25;;;22.81;51.64
54361;BME280;40258;53.936;27.540;2022-07-29T11:19:31;99796.59;;;23.12;52.71
54361;BME280;40258;53.936;27.540;2022-07-29T11:22:00;99791.06;;;23.12;51.32
54361;BME280;40258;53.936;27.540;2022-07-29T11:24:30;99801.25;;;23.01;50.77
54361;BME280;40258;53.936;27.540;2022-07-29T11:27:15;99803.38;;;23.25;50.75
54361;BME280;40258;53.936;27.540;2022-07-29T11:29:53;99791.16;;;23.44;50.72
54361;BME280;40258;53.936;27.540;2022-07-29T11:32:24;99792.34;;;23.54;51.28
54361;BME280;40258;53.936;27.540;2022-07-29T11:35:15;99798.31;;;23.63;49.50
54361;BME280;40258;53.936;27.540;2022-07-29T11:37:46;99792.78;;;23.74;51.06
54361;BME280;40258;53.936;27.540;2022-07-29T11:40:16;99788.09;;;23.89;49.63
54361;BME280;40258;53.936;27.540;2022-07-29T11:42:49;99788.88;;;23.90;48.70
54361;BME280;40258;53.936;27.540;2022-07-29T11:45:23;99795.63;;;23.92;49.94
54361;BME280;40258;53.936;27.540;2022-07-29T11:47:57;99803.13;;;24.13;47.53
54361;BME280;40258;53.936;27.540;2022-07-29T11:50:35;99798.38;;;24.07;46.47
54361;BME280;40258;53.936;27.540;2022-07-29T11:53:12;99791.25;;;23.91;46.74
54361;BME280;40258;53.936;27.540;2022-07-29T11:55:41;99788.09;;;24.11;47.58
54361;BME280;40258;53.936;27.540;2022-07-29T11:58:11;99788.88;;;24.11;49.22
54361;BME280;40258;53.936;27.540;2022-07-29T12:00:41;99780.53;;;24.29;47.95
54361;BME280;40258;53.936;27.540;2022-07-29T12:03:11;99783.28;;;24.54;48.91
54361;BME280;40258;53.936;27.540;2022-07-29T12:05:43;99780.09;;;24.63;45.43
54361;BME280;40258;53.936;27.540;2022-07-29T12:08:14;99784.84;;;24.66;45.68
54361;BME280;40258;53.936;27.540;2022-07-29T12:10:46;99782.47;;;24.65;45.88
54361;BME280;40258;53.936;27.540;2022-07-29T12:13:18;99773.78;;;24.45;46.83
54361;BME280;40258;53.936;27.540;2022-07-29T12:15:55;99775.38;;;24.46;46.24
54361;BME280;40258;53.936;27.540;2022-07-29T12:18:25;99770.59;;;24.71;46.54
54361;BME280;40258;53.936;27.540;2022-07-29T12:20:57;99763.78;;;24.87;44.85
54361;BME280;40258;53.936;27.540;2022-07-29T12:23:26;99768.56;;;24.75;46.38
54361;BME280;40258;53.936;27.540;2022-07-29T12:25:55;99765.72;;;25.04;44.69
54361;BME280;40258;53.936;27.540;2022-07-29T12:28:25;99753.88;;;24.86;44.85
54361;BME280;40258;53.936;27.540;2022-07-29T12:30:54;99762.13;;;25.00;44.48
54361;BME280;40258;53.936;27.540;2022-07-29T12:33:24;99753.03;;;25.00;45.20
54361;BME280;40258;53.936;27.540;2022-07-29T12:35:57;99756.13;;;25.12;44.04
54361;BME280;40258;53.936;27.540;2022-07-29T12:38:26;99758.47;;;25.18;44.17
54361;BME280;40258;53.936;27.540;2022-07-29T12:40:55;99754.91;;;25.24;43.36
54361;BME280;40258;53.936;27.540;2022-07-29T12:43:26;99748.97;;;25.19;44.20
54361;BME280;40258;53.936;27.540;2022-07-29T12:45:56;99750.50;;;25.27;43.46
54361;BME280;40258;53.936;27.540;2022-07-29T12:48:34;99734.72;;;25.17;45.08
54361;BME280;40258;53.936;27.540;2022-07-29T12:51:04;99732.25;;;25.33;43.40
54361;BME280;40258;53.936;27.540;2022-07-29T12:53:35;99739.38;;;25.34;42.28
54361;BME280;40258;53.936;27.540;2022-07-29T12:56:05;99739.16;;;24.96;44.11
54361;BME280;40258;53.936;27.540;2022-07-29T12:58:38;99732.34;;;25.08;43.37
54361;BME280;40258;53.936;27.540;2022-07-29T13:01:11;99730.31;;;25.19;43.62
54361;BME280;40258;53.936;27.540;2022-07-29T13:03:52;99730.66;;;25.32;41.46
54361;BME280;40258;53.936;27.540;2022-07-29T13:06:39;99729.88;;;25.28;44.00
54361;BME280;40258;53.936;27.540;2022-07-29T13:09:10;99727.50;;;25.26;42.27
54361;BME280;40258;53.936;27.540;2022-07-29T13:11:42;99729.91;;;25.21;43.23
54361;BME280;40258;53.936;27.540;2022-07-29T13:14:20;99731.69;;;24.82;40.90